createdAt,value
2018-03-06T00:02:21.792Z,6.67
2018-03-06T00:04:52.051Z,6.60
2018-03-06T00:07:23.204Z,7.70
2018-03-06T00:09:53.714Z,6.80
2018-03-06T00:12:24.792Z,6.63
2018-03-06T00:14:55.579Z,6.60
2018-03-06T00:17:25.810Z,6.80
2018-03-06T00:19:55.911Z,6.93
2018-03-06T00:22:25.916Z,7.27
2018-03-06T00:24:56.238Z,6.97
2018-03-06T00:27:26.870Z,7.23
2018-03-06T00:29:56.895Z,6.67
2018-03-06T00:32:26.952Z,6.97
2018-03-06T00:34:58.489Z,7.00
2018-03-06T00:37:28.775Z,7.60
2018-03-06T00:39:59.101Z,7.10
2018-03-06T00:42:29.219Z,6.87
2018-03-06T00:45:00.829Z,7.53
2018-03-06T00:47:31.605Z,7.30
2018-03-06T00:50:01.608Z,7.23
2018-03-06T00:52:31.996Z,7.17
2018-03-06T00:55:02.268Z,7.23
2018-03-06T00:57:32.492Z,7.47
2018-03-06T01:00:03.376Z,7.17
2018-03-06T01:02:33.962Z,7.87
2018-03-06T01:05:04.326Z,6.93
2018-03-06T01:07:35.547Z,7.70
2018-03-06T01:10:05.835Z,7.53
2018-03-06T01:12:36.619Z,6.80
2018-03-06T01:15:07.532Z,6.57
2018-03-06T01:17:38.311Z,7.50
2018-03-06T01:20:08.344Z,7.17
2018-03-06T01:22:38.573Z,7.67
2018-03-06T01:25:08.583Z,8.13
2018-03-06T01:27:39.859Z,7.43
2018-03-06T01:30:10.800Z,7.70
2018-03-06T01:32:40.916Z,7.40
2018-03-06T01:35:11.284Z,7.53
2018-03-06T01:37:41.568Z,7.03
2018-03-06T01:40:12.464Z,7.80
2018-03-06T01:42:42.828Z,7.90
2018-03-06T01:45:13.289Z,7.80
2018-03-06T01:47:44.289Z,7.80
2018-03-06T01:50:14.508Z,7.63
2018-03-06T01:52:44.678Z,7.27
2018-03-06T01:55:15.012Z,7.33
2018-03-06T01:57:45.755Z,7.77
2018-03-06T02:00:16.212Z,7.80
2018-03-06T02:02:46.772Z,7.60
2018-03-06T02:05:17.210Z,7.50
2018-03-06T02:07:48.931Z,6.43
2018-03-06T02:10:19.160Z,6.83
2018-03-06T02:12:49.528Z,7.00
2018-03-06T02:15:22.440Z,7.93
2018-03-06T02:17:59.554Z,7.53
2018-03-06T02:20:31.663Z,8.20
2018-03-06T02:23:04.563Z,7.27
2018-03-06T02:25:37.271Z,6.70
2018-03-06T02:28:07.598Z,7.20
2018-03-06T02:30:38.660Z,7.97
2018-03-06T02:33:09.135Z,7.20
2018-03-06T02:35:40.343Z,6.70
2018-03-06T02:38:12.171Z,7.77
2018-03-06T02:40:42.940Z,7.50
2018-03-06T02:43:13.624Z,7.33
2018-03-06T02:45:44.017Z,6.70
2018-03-06T02:48:14.582Z,7.77
2018-03-06T02:50:45.167Z,6.30
2018-03-06T02:53:16.048Z,7.00
2018-03-06T02:55:46.682Z,7.70
2018-03-06T02:58:18.118Z,7.40
2018-03-06T03:00:48.810Z,7.80
2018-03-06T03:03:19.595Z,7.40
2018-03-06T03:05:49.718Z,6.80
2018-03-06T03:08:20.162Z,8.10
2018-03-06T03:10:50.748Z,7.30
2018-03-06T03:13:21.040Z,7.83
2018-03-06T03:15:51.659Z,7.93
2018-03-06T03:18:21.946Z,7.67
2018-03-06T03:20:52.453Z,8.40
2018-03-06T03:23:22.798Z,7.70
2018-03-06T03:25:53.896Z,8.50
2018-03-06T03:28:24.598Z,7.90
2018-03-06T03:30:55.597Z,8.53
2018-03-06T03:33:25.574Z,8.17
2018-03-06T03:35:55.795Z,8.00
2018-03-06T03:38:26.327Z,7.83
2018-03-06T03:40:56.651Z,8.53
2018-03-06T03:43:27.268Z,8.03
2018-03-06T03:45:57.494Z,8.87
2018-03-06T03:48:28.085Z,7.60
2018-03-06T03:50:58.562Z,7.80
2018-03-06T03:53:29.101Z,7.90
2018-03-06T03:55:59.280Z,8.40
2018-03-06T03:58:29.730Z,7.40
2018-03-06T04:01:00.640Z,8.70
2018-03-06T04:03:31.457Z,8.23
2018-03-06T04:06:01.769Z,8.20
2018-03-06T04:08:32.118Z,8.13
2018-03-06T04:11:02.366Z,8.63
2018-03-06T04:13:32.750Z,9.30
2018-03-06T04:16:03.213Z,9.00
2018-03-06T04:18:33.603Z,9.60
2018-03-06T04:21:03.901Z,9.13
2018-03-06T04:23:34.198Z,9.77
2018-03-06T04:26:04.195Z,7.53
2018-03-06T04:28:34.514Z,8.73
2018-03-06T04:31:04.583Z,8.10
2018-03-06T04:33:35.395Z,9.33
2018-03-06T04:36:05.460Z,9.37
2018-03-06T04:38:35.878Z,10.10
2018-03-06T04:41:06.311Z,9.83
2018-03-06T04:43:36.798Z,9.87
2018-03-06T04:46:08.125Z,9.20
2018-03-06T04:48:39.967Z,9.17
2018-03-06T04:51:10.064Z,8.77
2018-03-06T04:53:41.395Z,8.27
2018-03-06T04:56:12.024Z,8.83
2018-03-06T04:58:43.192Z,9.23
2018-03-06T05:01:14.836Z,7.20
2018-03-06T05:03:45.163Z,8.50
2018-03-06T05:06:16.307Z,9.77
2018-03-06T05:08:46.805Z,9.43
2018-03-06T05:11:17.387Z,8.60
2018-03-06T05:13:47.766Z,9.20
2018-03-06T05:16:17.770Z,8.87
2018-03-06T05:18:48.290Z,9.53
2018-03-06T05:21:18.656Z,9.80
2018-03-06T05:23:48.642Z,11.13
2018-03-06T05:26:18.936Z,9.90
2018-03-06T05:28:49.229Z,10.17
2018-03-06T05:31:20.412Z,9.80
2018-03-06T05:33:50.627Z,9.10
2018-03-06T05:36:21.424Z,8.67
2018-03-06T05:38:51.451Z,9.60
2018-03-06T05:41:22.003Z,10.87
2018-03-06T05:43:51.947Z,9.43
2018-03-06T05:46:22.013Z,10.80
2018-03-06T05:48:52.087Z,9.87
2018-03-06T05:51:22.130Z,9.57
2018-03-06T05:53:52.280Z,9.63
2018-03-06T05:56:22.717Z,9.63
2018-03-06T05:58:52.827Z,9.40
2018-03-06T06:01:22.887Z,10.60
2018-03-06T06:03:52.928Z,9.70
2018-03-06T06:06:23.033Z,9.13
2018-03-06T06:08:53.144Z,9.70
2018-03-06T06:11:23.506Z,9.67
2018-03-06T06:13:54.447Z,10.00
2018-03-06T06:16:24.539Z,10.70
2018-03-06T06:18:54.843Z,9.60
2018-03-06T06:21:25.048Z,10.73
2018-03-06T06:23:55.109Z,10.17
2018-03-06T06:26:25.760Z,10.63
2018-03-06T06:28:56.077Z,10.20
2018-03-06T06:31:26.643Z,10.17
2018-03-06T06:33:56.678Z,10.57
2018-03-06T06:36:26.795Z,10.53
2018-03-06T06:38:57.626Z,11.20
2018-03-06T06:41:28.127Z,11.50
2018-03-06T06:43:58.414Z,9.83
2018-03-06T06:46:28.438Z,11.03
2018-03-06T06:48:58.538Z,10.83
2018-03-06T06:51:28.727Z,11.33
2018-03-06T06:53:58.788Z,10.27
2018-03-06T06:56:29.115Z,10.20
2018-03-06T06:58:59.171Z,11.40
2018-03-06T07:01:29.201Z,10.60
2018-03-06T07:04:00.047Z,11.30
2018-03-06T07:06:30.078Z,10.77
2018-03-06T07:09:00.878Z,9.77
2018-03-06T07:11:32.007Z,9.60
2018-03-06T07:14:01.985Z,9.97
2018-03-06T07:16:32.110Z,10.90
2018-03-06T07:19:03.359Z,10.77
2018-03-06T07:21:33.443Z,10.60
2018-03-06T07:24:03.595Z,10.67
2018-03-06T07:26:34.058Z,11.17
2018-03-06T07:29:04.195Z,11.17
2018-03-06T07:31:34.268Z,12.40
2018-03-06T07:34:04.391Z,12.50
2018-03-06T07:36:34.530Z,11.77
2018-03-06T07:39:05.002Z,12.77
2018-03-06T07:41:36.141Z,10.87
2018-03-06T07:44:07.670Z,10.40
2018-03-06T07:46:37.878Z,12.37
2018-03-06T07:49:07.896Z,10.70
2018-03-06T07:51:38.018Z,10.93
2018-03-06T07:54:08.041Z,11.37
2018-03-06T07:56:38.179Z,11.37
2018-03-06T07:59:09.271Z,11.77
2018-03-06T08:01:39.542Z,11.57
2018-03-06T08:04:10.475Z,13.20
2018-03-06T08:06:40.850Z,11.93
2018-03-06T08:09:18.300Z,12.70
2018-03-06T08:11:48.387Z,12.73
2018-03-06T08:14:18.824Z,12.20
2018-03-06T08:16:48.886Z,13.83
2018-03-06T08:19:18.945Z,13.77
2018-03-06T08:21:49.358Z,13.80
2018-03-06T08:24:19.405Z,13.07
2018-03-06T08:26:49.463Z,14.30
2018-03-06T08:29:19.519Z,14.37
2018-03-06T08:31:50.042Z,15.17
2018-03-06T08:34:20.133Z,14.90
2018-03-06T08:36:50.410Z,13.30
2018-03-06T08:39:21.254Z,15.03
2018-03-06T08:41:52.204Z,16.23
2018-03-06T08:44:23.276Z,15.73
2018-03-06T08:46:53.863Z,14.03
2018-03-06T08:49:23.999Z,14.40
2018-03-06T08:51:54.914Z,15.30
2018-03-06T08:54:24.930Z,17.50
2018-03-06T08:56:55.879Z,15.37
2018-03-06T08:59:26.778Z,15.57
2018-03-06T09:01:56.778Z,15.17
2018-03-06T09:04:27.374Z,16.10
2018-03-06T09:06:58.328Z,14.37
2018-03-06T09:09:28.523Z,17.70
2018-03-06T09:11:58.546Z,16.23
2018-03-06T09:14:29.677Z,16.20
2018-03-06T09:16:59.872Z,16.77
2018-03-06T09:19:29.906Z,16.63
2018-03-06T09:21:59.931Z,18.10
2018-03-06T09:24:29.944Z,17.50
2018-03-06T09:27:00.010Z,16.83
2018-03-06T09:29:30.383Z,16.80
2018-03-06T09:32:00.462Z,18.00
2018-03-06T09:34:30.539Z,18.40
2018-03-06T09:37:00.903Z,17.03
2018-03-06T09:39:31.044Z,16.60
2018-03-06T09:42:01.199Z,18.97
2018-03-06T09:44:32.044Z,17.33
2018-03-06T09:47:03.279Z,16.37
2018-03-06T09:49:34.115Z,20.33
2018-03-06T09:52:04.995Z,19.53
2018-03-06T09:54:36.451Z,17.57
2018-03-06T09:57:06.540Z,19.03
2018-03-06T09:59:37.483Z,19.10
2018-03-06T10:02:07.690Z,17.10
2018-03-06T10:04:38.616Z,18.20
2018-03-06T10:07:08.700Z,18.10
2018-03-06T10:09:38.946Z,18.90
2018-03-06T10:12:09.089Z,18.83
2018-03-06T10:14:40.344Z,17.93
2018-03-06T10:17:10.527Z,19.07
2018-03-06T10:19:40.737Z,17.30
2018-03-06T10:22:11.276Z,18.80
2018-03-06T10:24:41.594Z,18.80
2018-03-06T10:27:11.611Z,18.50
2018-03-06T10:29:41.847Z,19.00
2018-03-06T10:32:12.316Z,18.63
2018-03-06T10:34:42.448Z,19.10
2018-03-06T10:37:12.514Z,18.13
2018-03-06T10:39:43.782Z,18.20
2018-03-06T10:42:14.503Z,18.70
2018-03-06T10:44:45.660Z,19.07
2018-03-06T10:47:16.055Z,19.07
2018-03-06T10:49:46.127Z,19.20
2018-03-06T10:52:16.408Z,20.07
2018-03-06T10:54:47.380Z,20.57
2018-03-06T10:57:19.111Z,19.20
2018-03-06T10:59:50.407Z,19.27
2018-03-06T11:02:24.726Z,18.30
2018-03-06T11:04:54.951Z,19.93
2018-03-06T11:07:25.062Z,20.33
2018-03-06T11:09:55.131Z,19.53
2018-03-06T11:12:26.215Z,18.30
2018-03-06T11:14:56.768Z,18.60
2018-03-06T11:17:27.498Z,18.23
2018-03-06T11:19:57.870Z,21.27
2018-03-06T11:22:29.249Z,19.20
2018-03-06T11:24:59.480Z,19.40
2018-03-06T11:27:29.600Z,19.10
2018-03-06T11:30:00.111Z,19.50
2018-03-06T11:32:30.308Z,19.83
2018-03-06T11:35:01.320Z,20.00
2018-03-06T11:37:32.451Z,17.83
2018-03-06T11:40:03.667Z,19.30
2018-03-06T11:42:34.018Z,17.33
2018-03-06T11:45:04.298Z,18.57
2018-03-06T11:47:34.438Z,16.70
2018-03-06T11:50:04.612Z,16.30
2018-03-06T11:52:35.566Z,16.70
2018-03-06T11:55:06.575Z,15.80
2018-03-06T11:57:36.700Z,15.20
2018-03-06T12:00:07.837Z,15.33
2018-03-06T12:02:38.046Z,17.60
2018-03-06T12:05:08.226Z,16.27
2018-03-06T12:07:38.305Z,17.67
2018-03-06T12:10:08.483Z,18.47
2018-03-06T12:12:38.616Z,18.27
2018-03-06T12:15:09.027Z,16.90
2018-03-06T12:17:39.155Z,17.40
2018-03-06T12:20:09.346Z,17.80
2018-03-06T12:22:39.632Z,17.80
2018-03-06T12:25:09.671Z,17.77
2018-03-06T12:27:40.609Z,17.40
2018-03-06T12:30:12.848Z,18.40
2018-03-06T12:32:42.999Z,17.43
2018-03-06T12:35:13.884Z,16.53
2018-03-06T12:37:43.930Z,16.67
2018-03-06T12:40:13.971Z,18.03
2018-03-06T12:42:44.763Z,17.47
2018-03-06T12:45:15.111Z,19.97
2018-03-06T12:47:46.015Z,19.50
2018-03-06T12:50:16.060Z,18.13
2018-03-06T12:52:46.443Z,17.63
2018-03-06T12:55:16.574Z,18.10
2018-03-06T12:57:46.917Z,17.73
2018-03-06T13:00:19.529Z,17.63
2018-03-06T13:02:50.700Z,18.77
2018-03-06T13:05:20.800Z,17.80
2018-03-06T13:07:52.281Z,17.77
2018-03-06T13:10:24.622Z,20.80
2018-03-06T13:12:55.339Z,19.33
2018-03-06T13:15:25.561Z,17.20
2018-03-06T13:17:56.701Z,18.23
2018-03-06T13:20:29.875Z,18.70
2018-03-06T13:23:00.207Z,18.10
2018-03-06T13:25:30.442Z,17.03
2018-03-06T13:28:01.899Z,17.67
2018-03-06T13:30:32.093Z,16.67
2018-03-06T13:33:02.272Z,18.10
2018-03-06T13:35:32.389Z,17.50
2018-03-06T13:38:02.780Z,18.30
2018-03-06T13:40:33.799Z,17.70
2018-03-06T13:43:16.464Z,16.00
2018-03-06T13:45:46.759Z,18.53
2018-03-06T13:48:19.054Z,18.00
2018-03-06T13:50:49.925Z,15.63
2018-03-06T13:53:20.177Z,17.20
2018-03-06T13:55:51.964Z,17.10
2018-03-06T13:58:23.014Z,16.50
2018-03-06T14:00:54.055Z,17.40
2018-03-06T14:03:24.295Z,18.30
2018-03-06T14:05:54.910Z,16.10
2018-03-06T14:08:25.062Z,16.47
2018-03-06T14:10:55.312Z,18.23
2018-03-06T14:13:26.269Z,18.23
2018-03-06T14:15:59.369Z,18.80
2018-03-06T14:18:29.590Z,17.87
2018-03-06T14:20:59.893Z,16.70
2018-03-06T14:23:30.177Z,17.73
2018-03-06T14:26:00.498Z,17.43
2018-03-06T14:28:30.641Z,16.20
2018-03-06T14:31:01.375Z,17.07
2018-03-06T14:33:31.517Z,15.33
2018-03-06T14:36:02.541Z,17.83
2018-03-06T14:38:32.800Z,16.93
2018-03-06T14:41:03.023Z,16.73
2018-03-06T14:43:33.246Z,16.30
2018-03-06T14:46:03.750Z,17.50
2018-03-06T14:48:34.699Z,17.10
2018-03-06T14:51:05.771Z,16.90
2018-03-06T14:53:39.105Z,15.13
2018-03-06T14:56:14.147Z,15.73
2018-03-06T14:58:44.669Z,17.10
2018-03-06T15:01:15.081Z,15.97
2018-03-06T15:03:46.077Z,16.83
2018-03-06T15:06:16.361Z,14.97
2018-03-06T15:08:46.503Z,13.40
2018-03-06T15:11:17.529Z,14.03
2018-03-06T15:13:47.733Z,13.50
2018-03-06T15:16:18.468Z,14.37
2018-03-06T15:18:48.651Z,14.60
2018-03-06T15:21:18.824Z,13.60
2018-03-06T15:23:49.019Z,13.47
2018-03-06T15:26:19.154Z,12.90
2018-03-06T15:28:49.428Z,14.00
2018-03-06T15:31:19.934Z,13.70
2018-03-06T15:33:50.284Z,11.67
2018-03-06T15:36:20.541Z,11.40
2018-03-06T15:38:50.852Z,14.27
2018-03-06T15:41:21.016Z,14.30
2018-03-06T15:43:51.973Z,12.60
2018-03-06T15:46:22.983Z,13.60
2018-03-06T15:48:54.721Z,13.27
2018-03-06T15:51:24.849Z,13.17
2018-03-06T15:53:55.612Z,15.50
2018-03-06T15:56:26.617Z,13.27
2018-03-06T15:58:56.937Z,12.83
2018-03-06T16:01:27.065Z,15.10
2018-03-06T16:03:57.744Z,19.17
2018-03-06T16:06:27.890Z,18.77
2018-03-06T16:08:58.063Z,19.33
2018-03-06T16:11:28.947Z,19.97
2018-03-06T16:13:59.558Z,20.23
2018-03-06T16:16:29.725Z,20.50
2018-03-06T16:18:59.957Z,20.10
2018-03-06T16:21:30.106Z,21.70
2018-03-06T16:24:01.023Z,20.47
2018-03-06T16:26:31.554Z,21.60
2018-03-06T16:29:01.704Z,21.60
2018-03-06T16:31:31.914Z,20.43
2018-03-06T16:34:02.070Z,21.07
2018-03-06T16:36:32.211Z,20.63
2018-03-06T16:39:02.866Z,22.63
2018-03-06T16:41:33.061Z,20.93
2018-03-06T16:44:03.258Z,25.17
2018-03-06T16:46:33.498Z,24.60
2018-03-06T16:49:03.802Z,23.70
2018-03-06T16:51:34.042Z,25.77
2018-03-06T16:54:04.259Z,22.20
2018-03-06T16:56:34.373Z,25.33
2018-03-06T16:59:04.532Z,24.07
2018-03-06T17:01:35.174Z,25.27
2018-03-06T17:04:06.109Z,26.20
2018-03-06T17:06:36.324Z,24.23
2018-03-06T17:09:06.776Z,28.00
2018-03-06T17:11:36.924Z,27.93
2018-03-06T17:14:07.221Z,29.20
2018-03-06T17:16:37.736Z,28.60
2018-03-06T17:19:08.652Z,26.83
2018-03-06T17:21:39.303Z,28.20
2018-03-06T17:24:10.403Z,31.10
2018-03-06T17:26:40.675Z,31.00
2018-03-06T17:29:11.677Z,28.80
2018-03-06T17:31:48.808Z,29.97
2018-03-06T17:34:18.926Z,31.37
2018-03-06T17:36:49.065Z,31.10
2018-03-06T17:39:19.177Z,30.10
2018-03-06T17:41:49.514Z,29.53
2018-03-06T17:44:20.065Z,31.70
2018-03-06T17:53:35.502Z,31.90
2018-03-06T17:56:05.715Z,30.43
2018-03-06T17:58:35.980Z,31.07
2018-03-06T18:01:07.557Z,30.50
2018-03-06T18:03:37.766Z,30.30
2018-03-06T18:06:08.013Z,29.97
2018-03-06T18:08:39.028Z,28.90
2018-03-06T18:11:09.477Z,31.70
2018-03-06T18:13:39.792Z,28.23
2018-03-06T18:16:09.978Z,30.57
2018-03-06T18:18:40.894Z,29.30
2018-03-06T18:21:11.656Z,27.87
2018-03-06T18:23:41.929Z,29.10
2018-03-06T18:26:12.103Z,30.37
2018-03-06T18:28:42.289Z,28.23
2018-03-06T18:31:12.482Z,28.07
2018-03-06T18:33:43.305Z,24.97
2018-03-06T18:36:13.493Z,26.63
2018-03-06T18:38:44.449Z,28.57
2018-03-06T18:41:14.911Z,28.60
2018-03-06T18:43:45.093Z,27.50
2018-03-06T18:46:17.196Z,28.20
2018-03-06T18:48:48.899Z,30.40
2018-03-06T18:51:19.871Z,31.40
2018-03-06T18:53:50.042Z,27.87
2018-03-06T18:56:20.565Z,28.53
2018-03-06T18:58:52.359Z,27.40
2018-03-06T19:03:37.213Z,27.50
2018-03-06T19:06:16.086Z,28.30
2018-03-06T19:08:47.113Z,26.10
2018-03-06T19:11:17.489Z,25.63
2018-03-06T19:13:47.810Z,27.00
2018-03-06T19:16:18.131Z,26.30
2018-03-06T19:18:48.693Z,27.50
2018-03-06T19:21:19.621Z,26.90
2018-03-06T19:23:50.506Z,29.60
2018-03-06T19:26:20.736Z,27.73
2018-03-06T19:28:50.914Z,27.53
2018-03-06T19:31:21.997Z,28.70
2018-03-06T19:33:52.464Z,30.30
2018-03-06T19:36:22.785Z,32.33
2018-03-06T19:38:57.581Z,33.70
2018-03-06T19:41:28.797Z,30.43
2018-03-06T19:43:58.920Z,29.20
2018-03-06T19:46:29.050Z,32.07
2018-03-06T19:48:59.580Z,32.73
2018-03-06T19:51:34.364Z,27.20
2018-03-06T19:54:04.741Z,30.20
2018-03-06T19:56:35.624Z,27.87
2018-03-06T19:59:05.857Z,27.93
2018-03-06T20:01:36.858Z,29.03
2018-03-06T20:04:07.008Z,27.97
2018-03-06T20:06:37.431Z,28.40
2018-03-06T20:09:07.559Z,30.37
2018-03-06T20:11:38.162Z,32.47
2018-03-06T20:14:12.814Z,29.50
2018-03-06T20:16:43.586Z,29.67
2018-03-06T20:19:18.270Z,29.60
2018-03-06T20:21:48.527Z,31.27
2018-03-06T20:26:51.800Z,29.63
2018-03-06T20:29:22.747Z,32.77
2018-03-06T20:34:02.633Z,29.30
2018-03-06T20:36:33.149Z,31.80
2018-03-06T20:39:08.809Z,31.17
2018-03-06T20:41:39.187Z,31.83
2018-03-06T20:44:09.627Z,31.10
2018-03-06T20:47:43.226Z,31.23
2018-03-06T20:50:13.855Z,32.67
2018-03-06T20:52:49.170Z,28.40
2018-03-06T20:55:19.423Z,30.60
2018-03-06T20:57:50.358Z,31.43
2018-03-06T21:00:20.566Z,32.10
2018-03-06T21:02:51.174Z,33.63
2018-03-06T21:05:21.325Z,30.20
2018-03-06T21:07:52.831Z,31.50
2018-03-06T21:10:23.410Z,32.57
2018-03-06T21:12:54.070Z,36.83
2018-03-06T21:15:26.039Z,31.10
2018-03-06T21:17:56.161Z,32.70
2018-03-06T21:20:26.675Z,31.83
2018-03-06T21:22:58.180Z,34.43
2018-03-06T21:25:28.618Z,30.37
2018-03-06T21:27:58.730Z,29.60
2018-03-06T21:30:29.885Z,28.20
2018-03-06T21:33:00.320Z,28.93
2018-03-06T21:35:30.826Z,30.50
2018-03-06T21:38:00.928Z,29.90
2018-03-06T21:40:31.395Z,30.37
2018-03-06T21:43:02.638Z,30.00
2018-03-06T21:45:33.803Z,29.40
2018-03-06T21:48:05.374Z,32.10
2018-03-06T21:50:35.696Z,30.20
2018-03-06T21:53:05.990Z,28.27
2018-03-06T21:55:36.402Z,31.13
2018-03-06T21:58:06.873Z,27.87
2018-03-06T22:00:36.988Z,30.77
2018-03-06T22:03:07.616Z,32.07
2018-03-06T22:05:38.252Z,30.33
2018-03-06T22:08:08.834Z,31.10
2018-03-06T22:10:39.065Z,30.27
2018-03-06T22:13:09.664Z,34.47
2018-03-06T22:15:40.090Z,30.43
2018-03-06T22:18:10.363Z,29.40
2018-03-06T22:20:41.798Z,29.70
2018-03-06T22:23:12.546Z,33.47
2018-03-06T22:25:43.214Z,32.17
2018-03-06T22:28:13.671Z,30.20
2018-03-06T22:30:43.881Z,30.87
2018-03-06T22:33:14.470Z,29.60
2018-03-06T22:35:45.028Z,31.50
2018-03-06T22:38:15.708Z,33.17
2018-03-06T22:40:46.474Z,29.43
2018-03-06T22:43:16.602Z,31.70
2018-03-06T22:45:46.948Z,35.40
2018-03-06T22:48:17.113Z,36.20
2018-03-06T22:50:48.298Z,35.97
2018-03-06T22:53:18.409Z,33.00
2018-03-06T22:55:48.786Z,31.50
2018-03-06T22:58:19.181Z,31.87
2018-03-06T23:00:49.528Z,34.10
2018-03-06T23:03:20.518Z,29.63
2018-03-06T23:05:51.142Z,30.70
2018-03-06T23:08:21.811Z,31.87
2018-03-06T23:10:52.581Z,30.20
2018-03-06T23:13:23.521Z,31.80
2018-03-06T23:15:53.745Z,30.70
2018-03-06T23:18:25.028Z,29.43
2018-03-06T23:20:55.884Z,32.90
2018-03-06T23:23:26.480Z,29.17
2018-03-06T23:25:56.879Z,30.40
2018-03-06T23:28:27.732Z,28.03
2018-03-06T23:30:59.164Z,30.67
2018-03-06T23:33:30.432Z,30.67
2018-03-06T23:36:00.554Z,30.10
2018-03-06T23:38:30.923Z,30.93
2018-03-06T23:41:01.476Z,30.00
2018-03-06T23:43:32.605Z,29.57
2018-03-06T23:46:03.166Z,30.33
2018-03-06T23:48:33.642Z,30.17
2018-03-06T23:51:04.118Z,31.97
2018-03-06T23:53:34.660Z,29.43
2018-03-06T23:56:05.193Z,29.70
2018-03-06T23:58:35.927Z,29.27
